EZY122 LPPT-EGKK
Flight info
| Callsign | EZY122 |
|---|---|
| Flight time | N/A |
| Altitude | 38000 |
| Route | IXIDA DCT PINEK DCT KORUL DCT FEJAC DCT JSY/N0423F340 DCT REVTU UP88 VASUX |
| Aircraft | A20N/M-SDE2E3FGHIRWXY/LB1 |
Departure
| Time | 2026-05-06 15:33 |
|---|---|
| Airport | Lisbon Humberto Delgado Airport (LPPT) |
Arrival
| Time | N/A |
|---|---|
| Airport | London Gatwick Airport (EGKK) |
| Time | Latitude | Longitude | Altitude | Speed | Heading |
|---|---|---|---|---|---|
| 2026-05-06 15:10 | 38.77488 | -9.13157 | 347 ft | 0 kts | 81° |
| 2026-05-06 15:22 | 38.77489 | -9.13155 | 346 ft | 0 kts | 81° |
| 2026-05-06 15:22 | 38.77487 | -9.13167 | 346 ft | 2 kts | 81° |
| 2026-05-06 15:22 | 38.77485 | -9.13184 | 354 ft | 2 kts | 81° |
| 2026-05-06 15:22 | 38.77483 | -9.13201 | 351 ft | 2 kts | 81° |
| 2026-05-06 15:23 | 38.77481 | -9.13218 | 354 ft | 2 kts | 81° |
| 2026-05-06 15:23 | 38.77478 | -9.13236 | 354 ft | 2 kts | 81° |
| 2026-05-06 15:23 | 38.77478 | -9.13253 | 355 ft | 2 kts | 107° |
| 2026-05-06 15:23 | 38.77483 | -9.13269 | 353 ft | 2 kts | 134° |
| 2026-05-06 15:24 | 38.77493 | -9.13281 | 349 ft | 2 kts | 140° |
| 2026-05-06 15:24 | 38.77504 | -9.13291 | 357 ft | 2 kts | 146° |
| 2026-05-06 15:24 | 38.77515 | -9.13300 | 354 ft | 2 kts | 158° |
| 2026-05-06 15:24 | 38.77519 | -9.13302 | 354 ft | 0 kts | 162° |
| 2026-05-06 15:26 | 38.77518 | -9.13302 | 354 ft | 1 kts | 162° |
| 2026-05-06 15:27 | 38.77498 | -9.13294 | 357 ft | 6 kts | 165° |
| 2026-05-06 15:27 | 38.77437 | -9.13280 | 347 ft | 11 kts | 169° |
| 2026-05-06 15:27 | 38.77354 | -9.13260 | 347 ft | 14 kts | 170° |
| 2026-05-06 15:27 | 38.77253 | -9.13238 | 347 ft | 16 kts | 168° |
| 2026-05-06 15:28 | 38.77137 | -9.13207 | 347 ft | 18 kts | 168° |
| 2026-05-06 15:28 | 38.77006 | -9.13172 | 347 ft | 20 kts | 168° |
| 2026-05-06 15:28 | 38.76866 | -9.13135 | 347 ft | 19 kts | 168° |
| 2026-05-06 15:28 | 38.76777 | -9.13182 | 348 ft | 17 kts | 254° |
| 2026-05-06 15:29 | 38.76750 | -9.13353 | 347 ft | 21 kts | 252° |
| 2026-05-06 15:29 | 38.76650 | -9.13487 | 350 ft | 21 kts | 253° |
| 2026-05-06 15:29 | 38.76621 | -9.13678 | 347 ft | 22 kts | 258° |
| 2026-05-06 15:29 | 38.76590 | -9.13870 | 346 ft | 22 kts | 257° |
| 2026-05-06 15:30 | 38.76564 | -9.14032 | 350 ft | 15 kts | 259° |
| 2026-05-06 15:30 | 38.76568 | -9.14158 | 349 ft | 15 kts | 295° |
| 2026-05-06 15:30 | 38.76577 | -9.14185 | 351 ft | 2 kts | 292° |
| 2026-05-06 15:30 | 38.76579 | -9.14191 | 350 ft | 0 kts | 291° |
| 2026-05-06 15:31 | 38.76584 | -9.14211 | 351 ft | 7 kts | 289° |
| 2026-05-06 15:32 | 38.76690 | -9.14361 | 341 ft | 15 kts | 15° |
| 2026-05-06 15:32 | 38.76710 | -9.14351 | 339 ft | 0 kts | 20° |
| 2026-05-06 15:32 | 38.76857 | -9.14271 | 352 ft | 57 kts | 23° |
| 2026-05-06 15:32 | 38.77421 | -9.13972 | 352 ft | 115 kts | 24° |
| 2026-05-06 15:33 | 38.78307 | -9.13486 | 354 ft | 160 kts | 23° |
| 2026-05-06 15:33 | 38.79361 | -9.12925 | 815 ft | 164 kts | 21° |
| 2026-05-06 15:33 | 38.80364 | -9.12295 | 1585 ft | 158 kts | 24° |
| 2026-05-06 15:33 | 38.81309 | -9.11572 | 2225 ft | 162 kts | 24° |
| 2026-05-06 15:34 | 38.82371 | -9.10937 | 2680 ft | 176 kts | 8° |
| 2026-05-06 15:34 | 38.83637 | -9.11062 | 3107 ft | 195 kts | 345° |
| 2026-05-06 15:34 | 38.84986 | -9.11663 | 3588 ft | 216 kts | 339° |
| 2026-05-06 15:34 | 38.86481 | -9.12302 | 4012 ft | 240 kts | 353° |
| 2026-05-06 15:35 | 38.88207 | -9.12229 | 4558 ft | 255 kts | 6° |
| 2026-05-06 15:35 | 38.89989 | -9.11891 | 5336 ft | 262 kts | 9° |
| 2026-05-06 15:35 | 38.91803 | -9.11508 | 6172 ft | 267 kts | 9° |
| 2026-05-06 15:35 | 38.93660 | -9.11137 | 6947 ft | 272 kts | 8° |
| 2026-05-06 15:36 | 38.95545 | -9.10789 | 7779 ft | 275 kts | 7° |
| 2026-05-06 15:36 | 38.97455 | -9.10455 | 8616 ft | 279 kts | 7° |
| 2026-05-06 15:36 | 38.99395 | -9.10124 | 9423 ft | 283 kts | 7° |
| 2026-05-06 15:36 | 39.01363 | -9.09793 | 10204 ft | 288 kts | 6° |
| 2026-05-06 15:37 | 39.03416 | -9.09448 | 10536 ft | 309 kts | 6° |
| 2026-05-06 15:37 | 39.05631 | -9.09077 | 10768 ft | 332 kts | 6° |
| 2026-05-06 15:37 | 39.07957 | -9.08685 | 11330 ft | 341 kts | 6° |
| 2026-05-06 15:37 | 39.10321 | -9.08283 | 12045 ft | 345 kts | 6° |
| 2026-05-06 15:38 | 39.11905 | -9.08014 | 12521 ft | 348 kts | 6° |
| 2026-05-06 15:38 | 39.14324 | -9.07602 | 13271 ft | 352 kts | 6° |
| 2026-05-06 15:38 | 39.16767 | -9.07187 | 13972 ft | 357 kts | 5° |
| 2026-05-06 15:38 | 39.19245 | -9.06766 | 14595 ft | 362 kts | 5° |
| 2026-05-06 15:39 | 39.21759 | -9.06339 | 15236 ft | 366 kts | 5° |
| 2026-05-06 15:39 | 39.24292 | -9.05908 | 15880 ft | 369 kts | 5° |
| 2026-05-06 15:39 | 39.26858 | -9.05473 | 16478 ft | 374 kts | 5° |
| 2026-05-06 15:39 | 39.29451 | -9.05032 | 17102 ft | 378 kts | 5° |
| 2026-05-06 15:40 | 39.32072 | -9.04584 | 17731 ft | 381 kts | 5° |
| 2026-05-06 15:40 | 39.34725 | -9.04132 | 18313 ft | 386 kts | 5° |
| 2026-05-06 15:40 | 39.37394 | -9.03677 | 18891 ft | 389 kts | 5° |
| 2026-05-06 15:40 | 39.40092 | -9.03216 | 19431 ft | 392 kts | 5° |
| 2026-05-06 15:41 | 39.42809 | -9.02751 | 19965 ft | 396 kts | 5° |
| 2026-05-06 15:41 | 39.45547 | -9.02281 | 20521 ft | 398 kts | 5° |
| 2026-05-06 15:41 | 39.48310 | -9.01807 | 21055 ft | 402 kts | 5° |
| 2026-05-06 15:41 | 39.51093 | -9.01329 | 21573 ft | 405 kts | 5° |
| 2026-05-06 15:42 | 39.53903 | -9.00848 | 22091 ft | 409 kts | 5° |
| 2026-05-06 15:42 | 39.56731 | -9.00363 | 22604 ft | 412 kts | 5° |
| 2026-05-06 15:42 | 39.59588 | -8.99872 | 23093 ft | 416 kts | 5° |
| 2026-05-06 15:42 | 39.62465 | -8.99378 | 23601 ft | 419 kts | 5° |
| 2026-05-06 15:43 | 39.65361 | -8.98880 | 24022 ft | 421 kts | 5° |
| 2026-05-06 15:43 | 39.68280 | -8.98377 | 24447 ft | 424 kts | 5° |
| 2026-05-06 15:43 | 39.71214 | -8.97871 | 24858 ft | 427 kts | 5° |
| 2026-05-06 15:43 | 39.74129 | -8.97369 | 25257 ft | 430 kts | 5° |
| 2026-05-06 15:44 | 39.77102 | -8.96855 | 25641 ft | 433 kts | 5° |
| 2026-05-06 15:44 | 39.80097 | -8.96337 | 26012 ft | 435 kts | 5° |
| 2026-05-06 15:44 | 39.83111 | -8.95815 | 26384 ft | 438 kts | 5° |
| 2026-05-06 15:44 | 39.86144 | -8.95291 | 26742 ft | 441 kts | 5° |
| 2026-05-06 15:45 | 39.89197 | -8.94762 | 27127 ft | 444 kts | 5° |
| 2026-05-06 15:45 | 39.92269 | -8.94230 | 27470 ft | 447 kts | 5° |
| 2026-05-06 15:45 | 39.95358 | -8.93694 | 27815 ft | 449 kts | 5° |
| 2026-05-06 15:45 | 39.98465 | -8.93154 | 28132 ft | 452 kts | 5° |
| 2026-05-06 15:46 | 40.01587 | -8.92611 | 28457 ft | 454 kts | 5° |
| 2026-05-06 15:46 | 40.04726 | -8.92065 | 28757 ft | 457 kts | 5° |
| 2026-05-06 15:46 | 40.07888 | -8.91514 | 29052 ft | 459 kts | 5° |
| 2026-05-06 15:46 | 40.11061 | -8.90961 | 29334 ft | 461 kts | 5° |
| 2026-05-06 15:47 | 40.14249 | -8.90404 | 29622 ft | 463 kts | 5° |
| 2026-05-06 15:47 | 40.17451 | -8.89845 | 29912 ft | 466 kts | 5° |
| 2026-05-06 15:47 | 40.20673 | -8.89282 | 30179 ft | 468 kts | 5° |
| 2026-05-06 15:47 | 40.23901 | -8.88716 | 30461 ft | 469 kts | 5° |
| 2026-05-06 15:48 | 40.27146 | -8.88147 | 30737 ft | 471 kts | 5° |
| 2026-05-06 15:48 | 40.30390 | -8.87578 | 31005 ft | 472 kts | 5° |
| 2026-05-06 15:48 | 40.33651 | -8.87005 | 31302 ft | 472 kts | 5° |
| 2026-05-06 15:48 | 40.36908 | -8.86432 | 31653 ft | 471 kts | 5° |
| 2026-05-06 15:49 | 40.40152 | -8.85860 | 32008 ft | 470 kts | 5° |
| 2026-05-06 15:49 | 40.43394 | -8.85289 | 32348 ft | 469 kts | 4° |
| 2026-05-06 15:49 | 40.46626 | -8.84719 | 32675 ft | 468 kts | 4° |
| 2026-05-06 15:49 | 40.49855 | -8.84149 | 32985 ft | 468 kts | 4° |
| 2026-05-06 15:50 | 40.53081 | -8.83579 | 33303 ft | 467 kts | 4° |
| 2026-05-06 15:50 | 40.56298 | -8.83010 | 33607 ft | 466 kts | 4° |
| 2026-05-06 15:50 | 40.59507 | -8.82442 | 33906 ft | 465 kts | 4° |
| 2026-05-06 15:50 | 40.62713 | -8.81875 | 34162 ft | 464 kts | 4° |
| 2026-05-06 15:51 | 40.65915 | -8.81307 | 34411 ft | 464 kts | 4° |
| 2026-05-06 15:51 | 40.69112 | -8.80740 | 34639 ft | 463 kts | 4° |
| 2026-05-06 15:51 | 40.72302 | -8.80173 | 34863 ft | 462 kts | 4° |
| 2026-05-06 15:51 | 40.75487 | -8.79606 | 35075 ft | 462 kts | 4° |
| 2026-05-06 15:52 | 40.78671 | -8.79040 | 35283 ft | 461 kts | 4° |
| 2026-05-06 15:52 | 40.81853 | -8.78473 | 35487 ft | 461 kts | 4° |
| 2026-05-06 15:52 | 40.85027 | -8.77906 | 35677 ft | 461 kts | 4° |
| 2026-05-06 15:52 | 40.88161 | -8.77347 | 35865 ft | 460 kts | 4° |
| 2026-05-06 15:53 | 40.91377 | -8.76772 | 36058 ft | 460 kts | 4° |
| 2026-05-06 15:53 | 40.94503 | -8.76213 | 36231 ft | 459 kts | 4° |
| 2026-05-06 15:53 | 40.97705 | -8.75640 | 36404 ft | 459 kts | 5° |
| 2026-05-06 15:53 | 41.00831 | -8.75080 | 36559 ft | 459 kts | 5° |
| 2026-05-06 15:54 | 41.03990 | -8.74514 | 36712 ft | 458 kts | 5° |
| 2026-05-06 15:54 | 41.07154 | -8.73946 | 36861 ft | 458 kts | 5° |
| 2026-05-06 15:54 | 41.10310 | -8.73379 | 36992 ft | 458 kts | 5° |
| 2026-05-06 15:54 | 41.13465 | -8.72811 | 37145 ft | 457 kts | 5° |
| 2026-05-06 15:55 | 41.16619 | -8.72243 | 37291 ft | 457 kts | 5° |
| 2026-05-06 15:55 | 41.19771 | -8.71675 | 37425 ft | 457 kts | 5° |
| 2026-05-06 15:55 | 41.22917 | -8.71108 | 37560 ft | 457 kts | 5° |
| 2026-05-06 15:55 | 41.26069 | -8.70539 | 37700 ft | 456 kts | 5° |
| 2026-05-06 15:56 | 41.29213 | -8.69971 | 37821 ft | 456 kts | 5° |
| 2026-05-06 15:56 | 41.32359 | -8.69401 | 37945 ft | 456 kts | 5° |
| 2026-05-06 15:56 | 41.38648 | -8.68262 | 37986 ft | 455 kts | 5° |
| 2026-05-06 15:57 | 41.44919 | -8.67122 | 37985 ft | 455 kts | 5° |
| 2026-05-06 15:57 | 41.51199 | -8.65981 | 37993 ft | 455 kts | 5° |
| 2026-05-06 15:58 | 41.57474 | -8.64836 | 37996 ft | 455 kts | 5° |
| 2026-05-06 15:58 | 41.63748 | -8.63691 | 38000 ft | 455 kts | 5° |
| 2026-05-06 15:59 | 41.70032 | -8.62541 | 38001 ft | 456 kts | 5° |
| 2026-05-06 15:59 | 41.76316 | -8.61389 | 38006 ft | 456 kts | 5° |
| 2026-05-06 16:00 | 41.82602 | -8.60161 | 38003 ft | 457 kts | 9° |
| 2026-05-06 16:00 | 41.88721 | -8.57817 | 38006 ft | 459 kts | 19° |
| 2026-05-06 16:01 | 41.94667 | -8.54631 | 38003 ft | 460 kts | 19° |
| 2026-05-06 16:01 | 42.00620 | -8.51471 | 38011 ft | 461 kts | 19° |
| 2026-05-06 16:02 | 42.06576 | -8.48287 | 38009 ft | 460 kts | 19° |
| 2026-05-06 16:02 | 42.12520 | -8.45092 | 38017 ft | 460 kts | 19° |
| 2026-05-06 16:03 | 42.18464 | -8.41888 | 38013 ft | 460 kts | 19° |
| 2026-05-06 16:03 | 42.24403 | -8.38680 | 38012 ft | 460 kts | 19° |
| 2026-05-06 16:04 | 42.30337 | -8.35469 | 38004 ft | 459 kts | 19° |
| 2026-05-06 16:04 | 42.36263 | -8.32256 | 38005 ft | 459 kts | 19° |
| 2026-05-06 16:05 | 42.42174 | -8.29044 | 38009 ft | 457 kts | 19° |
| 2026-05-06 16:05 | 42.48039 | -8.25851 | 38014 ft | 457 kts | 19° |
| 2026-05-06 16:06 | 42.53934 | -8.22635 | 38020 ft | 457 kts | 19° |
| 2026-05-06 16:06 | 42.59832 | -8.19411 | 38010 ft | 457 kts | 19° |
| 2026-05-06 16:07 | 42.65722 | -8.16185 | 38017 ft | 457 kts | 20° |
| 2026-05-06 16:07 | 42.71617 | -8.12949 | 38020 ft | 457 kts | 19° |
| 2026-05-06 16:08 | 42.77512 | -8.09706 | 38027 ft | 457 kts | 20° |
| 2026-05-06 16:08 | 42.83405 | -8.06458 | 38027 ft | 457 kts | 20° |
| 2026-05-06 16:09 | 42.89306 | -8.03198 | 38030 ft | 458 kts | 20° |
| 2026-05-06 16:09 | 42.95211 | -7.99930 | 38034 ft | 458 kts | 20° |
| 2026-05-06 16:10 | 43.01118 | -7.96654 | 38032 ft | 458 kts | 20° |
| 2026-05-06 16:10 | 43.07022 | -7.93373 | 38040 ft | 458 kts | 20° |
| 2026-05-06 16:11 | 43.12922 | -7.90086 | 38038 ft | 457 kts | 20° |
| 2026-05-06 16:11 | 43.18804 | -7.86803 | 38041 ft | 456 kts | 20° |
| 2026-05-06 16:12 | 43.24680 | -7.83518 | 38041 ft | 456 kts | 20° |
| 2026-05-06 16:12 | 43.30553 | -7.80226 | 38044 ft | 456 kts | 20° |
| 2026-05-06 16:13 | 43.36424 | -7.76930 | 38044 ft | 456 kts | 20° |
| 2026-05-06 16:13 | 43.42300 | -7.73623 | 38047 ft | 456 kts | 20° |
| 2026-05-06 16:14 | 43.48177 | -7.70308 | 38052 ft | 457 kts | 20° |
| 2026-05-06 16:14 | 43.54056 | -7.66985 | 38043 ft | 455 kts | 20° |
| 2026-05-06 16:15 | 43.59866 | -7.63694 | 38045 ft | 455 kts | 20° |
| 2026-05-06 16:15 | 43.65724 | -7.60370 | 38042 ft | 455 kts | 20° |
| 2026-05-06 16:16 | 43.71568 | -7.57047 | 38042 ft | 455 kts | 20° |
| 2026-05-06 16:16 | 43.77419 | -7.53712 | 38042 ft | 455 kts | 20° |
| 2026-05-06 16:17 | 43.83263 | -7.50374 | 38040 ft | 454 kts | 20° |
| 2026-05-06 16:17 | 43.89102 | -7.47032 | 38037 ft | 454 kts | 20° |
| 2026-05-06 16:18 | 43.94934 | -7.43687 | 38032 ft | 453 kts | 20° |
| 2026-05-06 16:18 | 44.00762 | -7.40337 | 38029 ft | 453 kts | 20° |
| 2026-05-06 16:19 | 44.06586 | -7.36982 | 38030 ft | 453 kts | 20° |
| 2026-05-06 16:19 | 44.12408 | -7.33622 | 38034 ft | 453 kts | 20° |
| 2026-05-06 16:20 | 44.18225 | -7.30256 | 38036 ft | 453 kts | 20° |
| 2026-05-06 16:20 | 44.24038 | -7.26886 | 38036 ft | 453 kts | 20° |
| 2026-05-06 16:21 | 44.29852 | -7.23509 | 38032 ft | 453 kts | 20° |
| 2026-05-06 16:21 | 44.35664 | -7.20125 | 38034 ft | 453 kts | 20° |
| 2026-05-06 16:22 | 44.41474 | -7.16735 | 38041 ft | 453 kts | 20° |
| 2026-05-06 16:22 | 44.47287 | -7.13336 | 38034 ft | 453 kts | 20° |
| 2026-05-06 16:23 | 44.53096 | -7.09932 | 38037 ft | 453 kts | 20° |
| 2026-05-06 16:23 | 44.58868 | -7.06542 | 38038 ft | 453 kts | 20° |
| 2026-05-06 16:24 | 44.64675 | -7.03124 | 38043 ft | 453 kts | 21° |
| 2026-05-06 16:24 | 44.70484 | -6.99698 | 38045 ft | 453 kts | 21° |
| 2026-05-06 16:25 | 44.76292 | -6.96266 | 38046 ft | 453 kts | 21° |
| 2026-05-06 16:25 | 44.82066 | -6.92688 | 38045 ft | 456 kts | 26° |
| 2026-05-06 16:26 | 44.87480 | -6.87966 | 38043 ft | 459 kts | 34° |
| 2026-05-06 16:26 | 44.91781 | -6.83601 | 38043 ft | 458 kts | 34° |
| 2026-05-06 16:27 | 44.96978 | -6.78382 | 38040 ft | 459 kts | 34° |
| 2026-05-06 16:27 | 45.02167 | -6.73144 | 38043 ft | 459 kts | 34° |
| 2026-05-06 16:28 | 45.07352 | -6.67887 | 38045 ft | 459 kts | 34° |
| 2026-05-06 16:28 | 45.12535 | -6.62615 | 38046 ft | 459 kts | 34° |
| 2026-05-06 16:29 | 45.17715 | -6.57331 | 38049 ft | 459 kts | 34° |
| 2026-05-06 16:29 | 45.22897 | -6.52034 | 38048 ft | 459 kts | 34° |
| 2026-05-06 16:30 | 45.27199 | -6.47627 | 38050 ft | 459 kts | 34° |
| 2026-05-06 16:30 | 45.33244 | -6.41420 | 38053 ft | 459 kts | 34° |
| 2026-05-06 16:31 | 45.38414 | -6.36098 | 38047 ft | 459 kts | 34° |
| 2026-05-06 16:31 | 45.43583 | -6.30764 | 38046 ft | 459 kts | 34° |
| 2026-05-06 16:32 | 45.48744 | -6.25428 | 38051 ft | 458 kts | 34° |
| 2026-05-06 16:32 | 45.53905 | -6.20078 | 38047 ft | 458 kts | 34° |
| 2026-05-06 16:33 | 45.59057 | -6.14726 | 38046 ft | 458 kts | 34° |
| 2026-05-06 16:34 | 45.66781 | -6.06678 | 38043 ft | 458 kts | 34° |
| 2026-05-06 16:34 | 45.71888 | -6.01341 | 38043 ft | 458 kts | 34° |
| 2026-05-06 16:35 | 45.77026 | -5.95959 | 38042 ft | 457 kts | 34° |
| 2026-05-06 16:35 | 45.82158 | -5.90572 | 38041 ft | 457 kts | 34° |
| 2026-05-06 16:36 | 45.87287 | -5.85174 | 38037 ft | 457 kts | 34° |
| 2026-05-06 16:36 | 45.92414 | -5.79766 | 38039 ft | 457 kts | 34° |
| 2026-05-06 16:37 | 45.97534 | -5.74353 | 38037 ft | 457 kts | 35° |
| 2026-05-06 16:37 | 46.02650 | -5.68931 | 38036 ft | 457 kts | 35° |
| 2026-05-06 16:38 | 46.07763 | -5.63500 | 38036 ft | 457 kts | 35° |
| 2026-05-06 16:38 | 46.12873 | -5.58059 | 38037 ft | 457 kts | 35° |
| 2026-05-06 16:39 | 46.17984 | -5.52604 | 38031 ft | 457 kts | 35° |
| 2026-05-06 16:39 | 46.23087 | -5.47145 | 38033 ft | 457 kts | 35° |
| 2026-05-06 16:40 | 46.28190 | -5.41673 | 38035 ft | 457 kts | 35° |
| 2026-05-06 16:40 | 46.33292 | -5.36188 | 38033 ft | 457 kts | 35° |
| 2026-05-06 16:41 | 46.38388 | -5.30698 | 38032 ft | 457 kts | 35° |
| 2026-05-06 16:41 | 46.43483 | -5.25196 | 38030 ft | 457 kts | 35° |
| 2026-05-06 16:42 | 46.48575 | -5.19683 | 38032 ft | 457 kts | 35° |
| 2026-05-06 16:42 | 46.53662 | -5.14163 | 38033 ft | 457 kts | 35° |
| 2026-05-06 16:43 | 46.58749 | -5.08629 | 38034 ft | 457 kts | 35° |
| 2026-05-06 16:43 | 46.63827 | -5.03092 | 38028 ft | 456 kts | 35° |
| 2026-05-06 16:44 | 46.68908 | -4.97538 | 38028 ft | 456 kts | 35° |
| 2026-05-06 16:44 | 46.73980 | -4.91981 | 38026 ft | 456 kts | 35° |
| 2026-05-06 16:45 | 46.79015 | -4.86452 | 38019 ft | 456 kts | 35° |
| 2026-05-06 16:45 | 46.84081 | -4.80875 | 38021 ft | 456 kts | 35° |
| 2026-05-06 16:46 | 46.89140 | -4.75291 | 38019 ft | 456 kts | 35° |
| 2026-05-06 16:46 | 46.94198 | -4.69695 | 38016 ft | 456 kts | 36° |
| 2026-05-06 16:47 | 46.99253 | -4.64090 | 38013 ft | 456 kts | 36° |
| 2026-05-06 16:47 | 47.04305 | -4.58473 | 38011 ft | 456 kts | 36° |
| 2026-05-06 16:48 | 47.09351 | -4.52850 | 38009 ft | 456 kts | 36° |
| 2026-05-06 16:48 | 47.14397 | -4.47213 | 38007 ft | 456 kts | 36° |
| 2026-05-06 16:49 | 47.19437 | -4.41569 | 38003 ft | 456 kts | 36° |
| 2026-05-06 16:49 | 47.24473 | -4.35916 | 38001 ft | 456 kts | 36° |
| 2026-05-06 16:50 | 47.29513 | -4.30244 | 38006 ft | 455 kts | 36° |
| 2026-05-06 16:50 | 47.34544 | -4.24569 | 38007 ft | 455 kts | 36° |
| 2026-05-06 16:51 | 47.39575 | -4.18879 | 38002 ft | 456 kts | 36° |
| 2026-05-06 16:51 | 47.44598 | -4.13191 | 37989 ft | 454 kts | 37° |
| 2026-05-06 16:52 | 47.49601 | -4.07508 | 37985 ft | 453 kts | 37° |
| 2026-05-06 16:52 | 47.54594 | -4.01819 | 37984 ft | 453 kts | 37° |
| 2026-05-06 16:53 | 47.59586 | -3.96117 | 37984 ft | 453 kts | 37° |
| 2026-05-06 16:53 | 47.64579 | -3.90401 | 37979 ft | 453 kts | 37° |
| 2026-05-06 16:54 | 47.69531 | -3.84717 | 37976 ft | 453 kts | 37° |
| 2026-05-06 16:54 | 47.74515 | -3.78982 | 37973 ft | 453 kts | 37° |
| 2026-05-06 16:55 | 47.79490 | -3.73243 | 37974 ft | 453 kts | 37° |